sensor_id;sensor_type;location;lat;lon;timestamp;P1;durP1;ratioP1;P2;durP2;ratioP2
62927;SDS011;51070;52.236;-0.892;2022-09-28T00:00:18;7.30;;;2.50;;
62927;SDS011;51070;52.236;-0.892;2022-09-28T00:02:44;8.20;;;1.90;;
62927;SDS011;51070;52.236;-0.892;2022-09-28T00:05:09;9.10;;;2.10;;
62927;SDS011;51070;52.236;-0.892;2022-09-28T00:07:36;5.60;;;2.00;;
62927;SDS011;51070;52.236;-0.892;2022-09-28T00:10:02;4.80;;;1.80;;
62927;SDS011;51070;52.236;-0.892;2022-09-28T00:12:28;5.60;;;2.10;;
62927;SDS011;51070;52.236;-0.892;2022-09-28T00:14:55;11.50;;;2.60;;
62927;SDS011;51070;52.236;-0.892;2022-09-28T00:17:20;9.20;;;1.60;;
62927;SDS011;51070;52.236;-0.892;2022-09-28T00:19:47;6.20;;;2.20;;
62927;SDS011;51070;52.236;-0.892;2022-09-28T00:22:12;6.70;;;1.80;;
62927;SDS011;51070;52.236;-0.892;2022-09-28T00:24:38;7.30;;;2.10;;
62927;SDS011;51070;52.236;-0.892;2022-09-28T00:27:03;5.40;;;1.60;;
62927;SDS011;51070;52.236;-0.892;2022-09-28T00:29:33;6.30;;;1.60;;
62927;SDS011;51070;52.236;-0.892;2022-09-28T00:32:04;2.20;;;1.50;;
62927;SDS011;51070;52.236;-0.892;2022-09-28T00:34:35;4.80;;;2.00;;
62927;SDS011;51070;52.236;-0.892;2022-09-28T00:37:03;5.30;;;2.50;;
62927;SDS011;51070;52.236;-0.892;2022-09-28T00:39:30;7.90;;;2.20;;
62927;SDS011;51070;52.236;-0.892;2022-09-28T00:41:56;6.40;;;3.20;;
62927;SDS011;51070;52.236;-0.892;2022-09-28T00:46:57;3.90;;;1.70;;
62927;SDS011;51070;52.236;-0.892;2022-09-28T00:52:19;4.50;;;2.00;;
62927;SDS011;51070;52.236;-0.892;2022-09-28T00:54:50;7.30;;;2.40;;
62927;SDS011;51070;52.236;-0.892;2022-09-28T00:57:17;5.30;;;1.80;;
62927;SDS011;51070;52.236;-0.892;2022-09-28T00:59:45;9.50;;;2.60;;
62927;SDS011;51070;52.236;-0.892;2022-09-28T01:02:11;9.30;;;2.70;;
62927;SDS011;51070;52.236;-0.892;2022-09-28T01:04:37;5.50;;;2.30;;
62927;SDS011;51070;52.236;-0.892;2022-09-28T01:07:03;7.10;;;2.30;;
62927;SDS011;51070;52.236;-0.892;2022-09-28T01:09:28;9.80;;;2.60;;
62927;SDS011;51070;52.236;-0.892;2022-09-28T01:11:55;8.70;;;1.90;;
62927;SDS011;51070;52.236;-0.892;2022-09-28T01:14:21;11.20;;;2.90;;
62927;SDS011;51070;52.236;-0.892;2022-09-28T01:19:42;7.90;;;2.00;;
62927;SDS011;51070;52.236;-0.892;2022-09-28T01:22:25;5.60;;;2.10;;
62927;SDS011;51070;52.236;-0.892;2022-09-28T01:27:56;7.90;;;1.90;;
62927;SDS011;51070;52.236;-0.892;2022-09-28T01:30:28;10.70;;;2.10;;
62927;SDS011;51070;52.236;-0.892;2022-09-28T01:33:05;9.80;;;2.10;;
62927;SDS011;51070;52.236;-0.892;2022-09-28T01:35:41;11.00;;;2.80;;
62927;SDS011;51070;52.236;-0.892;2022-09-28T01:38:20;8.00;;;1.90;;
62927;SDS011;51070;52.236;-0.892;2022-09-28T01:40:49;3.40;;;1.90;;
62927;SDS011;51070;52.236;-0.892;2022-09-28T01:43:17;6.90;;;2.60;;
62927;SDS011;51070;52.236;-0.892;2022-09-28T01:45:48;3.70;;;1.70;;
62927;SDS011;51070;52.236;-0.892;2022-09-28T01:48:18;5.70;;;2.00;;
62927;SDS011;51070;52.236;-0.892;2022-09-28T01:50:51;8.70;;;2.00;;
62927;SDS011;51070;52.236;-0.892;2022-09-28T01:53:27;5.90;;;1.80;;
62927;SDS011;51070;52.236;-0.892;2022-09-28T01:56:02;6.60;;;2.30;;
62927;SDS011;51070;52.236;-0.892;2022-09-28T01:58:35;6.60;;;1.90;;
62927;SDS011;51070;52.236;-0.892;2022-09-28T02:01:14;8.90;;;2.10;;
62927;SDS011;51070;52.236;-0.892;2022-09-28T02:04:02;9.00;;;2.70;;
62927;SDS011;51070;52.236;-0.892;2022-09-28T02:06:37;5.10;;;2.20;;
62927;SDS011;51070;52.236;-0.892;2022-09-28T02:09:10;3.90;;;1.50;;
62927;SDS011;51070;52.236;-0.892;2022-09-28T02:11:50;6.00;;;2.10;;
62927;SDS011;51070;52.236;-0.892;2022-09-28T02:14:21;4.30;;;1.60;;
62927;SDS011;51070;52.236;-0.892;2022-09-28T02:16:50;7.10;;;2.70;;
62927;SDS011;51070;52.236;-0.892;2022-09-28T02:19:21;4.60;;;2.10;;
62927;SDS011;51070;52.236;-0.892;2022-09-28T02:30:14;4.20;;;1.90;;
62927;SDS011;51070;52.236;-0.892;2022-09-28T02:32:43;6.90;;;2.40;;
62927;SDS011;51070;52.236;-0.892;2022-09-28T02:35:12;4.80;;;2.20;;
62927;SDS011;51070;52.236;-0.892;2022-09-28T02:37:40;9.00;;;2.10;;
62927;SDS011;51070;52.236;-0.892;2022-09-28T02:40:16;4.10;;;1.70;;
62927;SDS011;51070;52.236;-0.892;2022-09-28T02:42:58;6.50;;;2.40;;
62927;SDS011;51070;52.236;-0.892;2022-09-28T02:53:53;7.30;;;2.30;;
62927;SDS011;51070;52.236;-0.892;2022-09-28T02:56:24;7.40;;;2.10;;
62927;SDS011;51070;52.236;-0.892;2022-09-28T03:06:58;5.50;;;2.10;;
62927;SDS011;51070;52.236;-0.892;2022-09-28T03:09:36;5.00;;;2.30;;
62927;SDS011;51070;52.236;-0.892;2022-09-28T03:12:12;6.20;;;2.20;;
62927;SDS011;51070;52.236;-0.892;2022-09-28T03:14:40;7.30;;;2.20;;
62927;SDS011;51070;52.236;-0.892;2022-09-28T03:17:05;7.50;;;2.50;;
62927;SDS011;51070;52.236;-0.892;2022-09-28T03:19:32;7.80;;;2.20;;
62927;SDS011;51070;52.236;-0.892;2022-09-28T03:21:59;5.00;;;2.40;;
62927;SDS011;51070;52.236;-0.892;2022-09-28T03:24:25;7.90;;;1.90;;
62927;SDS011;51070;52.236;-0.892;2022-09-28T03:26:50;6.00;;;1.80;;
62927;SDS011;51070;52.236;-0.892;2022-09-28T03:29:16;5.80;;;2.90;;
62927;SDS011;51070;52.236;-0.892;2022-09-28T03:31:44;6.50;;;2.20;;
62927;SDS011;51070;52.236;-0.892;2022-09-28T03:34:09;8.90;;;2.30;;
62927;SDS011;51070;52.236;-0.892;2022-09-28T03:36:35;4.10;;;1.90;;
62927;SDS011;51070;52.236;-0.892;2022-09-28T03:39:00;8.50;;;2.80;;
62927;SDS011;51070;52.236;-0.892;2022-09-28T03:41:26;11.00;;;2.90;;
62927;SDS011;51070;52.236;-0.892;2022-09-28T03:43:52;4.10;;;2.30;;
62927;SDS011;51070;52.236;-0.892;2022-09-28T03:46:18;7.00;;;2.30;;
62927;SDS011;51070;52.236;-0.892;2022-09-28T03:48:43;3.10;;;2.00;;
62927;SDS011;51070;52.236;-0.892;2022-09-28T03:51:09;4.80;;;2.40;;
62927;SDS011;51070;52.236;-0.892;2022-09-28T03:53:36;4.80;;;2.50;;
62927;SDS011;51070;52.236;-0.892;2022-09-28T03:56:03;8.80;;;2.50;;
62927;SDS011;51070;52.236;-0.892;2022-09-28T03:58:35;3.90;;;2.20;;
62927;SDS011;51070;52.236;-0.892;2022-09-28T04:01:04;2.70;;;1.80;;
62927;SDS011;51070;52.236;-0.892;2022-09-28T04:03:32;7.40;;;2.40;;
62927;SDS011;51070;52.236;-0.892;2022-09-28T04:05:58;4.60;;;2.10;;
62927;SDS011;51070;52.236;-0.892;2022-09-28T04:08:23;11.90;;;2.70;;
62927;SDS011;51070;52.236;-0.892;2022-09-28T04:10:49;5.30;;;2.00;;
62927;SDS011;51070;52.236;-0.892;2022-09-28T04:13:15;6.10;;;2.10;;
62927;SDS011;51070;52.236;-0.892;2022-09-28T04:15:41;5.10;;;1.90;;
62927;SDS011;51070;52.236;-0.892;2022-09-28T04:18:08;5.30;;;2.50;;
62927;SDS011;51070;52.236;-0.892;2022-09-28T04:20:34;8.90;;;3.00;;
62927;SDS011;51070;52.236;-0.892;2022-09-28T04:23:00;6.20;;;2.30;;
62927;SDS011;51070;52.236;-0.892;2022-09-28T04:25:25;4.60;;;2.50;;
62927;SDS011;51070;52.236;-0.892;2022-09-28T04:27:51;8.50;;;2.60;;
62927;SDS011;51070;52.236;-0.892;2022-09-28T04:30:35;3.70;;;2.00;;
62927;SDS011;51070;52.236;-0.892;2022-09-28T04:33:00;7.70;;;2.60;;
62927;SDS011;51070;52.236;-0.892;2022-09-28T04:35:26;6.80;;;2.40;;
62927;SDS011;51070;52.236;-0.892;2022-09-28T04:37:51;9.10;;;2.50;;
62927;SDS011;51070;52.236;-0.892;2022-09-28T04:40:17;9.80;;;2.70;;
62927;SDS011;51070;52.236;-0.892;2022-09-28T04:42:42;6.00;;;2.50;;
62927;SDS011;51070;52.236;-0.892;2022-09-28T04:45:08;6.60;;;2.60;;
62927;SDS011;51070;52.236;-0.892;2022-09-28T04:47:34;7.30;;;3.30;;
62927;SDS011;51070;52.236;-0.892;2022-09-28T04:49:59;9.30;;;4.20;;
62927;SDS011;51070;52.236;-0.892;2022-09-28T04:52:25;10.50;;;3.30;;
62927;SDS011;51070;52.236;-0.892;2022-09-28T04:54:51;7.80;;;3.90;;
62927;SDS011;51070;52.236;-0.892;2022-09-28T04:57:16;8.90;;;3.30;;
62927;SDS011;51070;52.236;-0.892;2022-09-28T04:59:42;9.00;;;3.80;;
62927;SDS011;51070;52.236;-0.892;2022-09-28T05:02:07;9.60;;;3.60;;
62927;SDS011;51070;52.236;-0.892;2022-09-28T05:04:33;10.60;;;4.50;;
62927;SDS011;51070;52.236;-0.892;2022-09-28T05:06:58;9.30;;;4.20;;
62927;SDS011;51070;52.236;-0.892;2022-09-28T05:09:24;10.10;;;4.70;;
62927;SDS011;51070;52.236;-0.892;2022-09-28T05:11:49;11.70;;;5.30;;
62927;SDS011;51070;52.236;-0.892;2022-09-28T05:14:19;10.30;;;5.20;;
62927;SDS011;51070;52.236;-0.892;2022-09-28T05:16:48;8.00;;;4.80;;
62927;SDS011;51070;52.236;-0.892;2022-09-28T05:19:13;9.40;;;4.60;;
62927;SDS011;51070;52.236;-0.892;2022-09-28T05:21:41;6.80;;;4.30;;
62927;SDS011;51070;52.236;-0.892;2022-09-28T05:24:09;6.10;;;4.40;;
62927;SDS011;51070;52.236;-0.892;2022-09-28T05:26:35;7.40;;;4.30;;
62927;SDS011;51070;52.236;-0.892;2022-09-28T05:29:00;6.90;;;4.20;;
62927;SDS011;51070;52.236;-0.892;2022-09-28T05:31:26;8.00;;;4.20;;
62927;SDS011;51070;52.236;-0.892;2022-09-28T05:33:51;17.90;;;4.90;;
62927;SDS011;51070;52.236;-0.892;2022-09-28T05:36:17;6.80;;;4.10;;
62927;SDS011;51070;52.236;-0.892;2022-09-28T05:38:44;9.70;;;4.90;;
62927;SDS011;51070;52.236;-0.892;2022-09-28T05:41:10;8.40;;;5.50;;
62927;SDS011;51070;52.236;-0.892;2022-09-28T05:43:36;8.30;;;5.40;;
62927;SDS011;51070;52.236;-0.892;2022-09-28T05:46:02;6.30;;;4.30;;
62927;SDS011;51070;52.236;-0.892;2022-09-28T05:48:28;8.20;;;5.20;;
62927;SDS011;51070;52.236;-0.892;2022-09-28T05:50:54;6.80;;;4.40;;
62927;SDS011;51070;52.236;-0.892;2022-09-28T05:53:20;8.70;;;4.90;;
62927;SDS011;51070;52.236;-0.892;2022-09-28T05:55:46;8.50;;;5.20;;
62927;SDS011;51070;52.236;-0.892;2022-09-28T05:58:12;9.10;;;4.90;;
62927;SDS011;51070;52.236;-0.892;2022-09-28T06:00:37;6.90;;;4.50;;
62927;SDS011;51070;52.236;-0.892;2022-09-28T06:03:05;6.90;;;4.60;;
62927;SDS011;51070;52.236;-0.892;2022-09-28T06:05:35;10.50;;;5.50;;
62927;SDS011;51070;52.236;-0.892;2022-09-28T06:08:03;9.10;;;5.00;;
62927;SDS011;51070;52.236;-0.892;2022-09-28T06:10:30;11.20;;;5.00;;
62927;SDS011;51070;52.236;-0.892;2022-09-28T06:12:56;12.00;;;5.40;;
62927;SDS011;51070;52.236;-0.892;2022-09-28T06:15:23;5.90;;;4.50;;
62927;SDS011;51070;52.236;-0.892;2022-09-28T06:17:57;8.90;;;4.90;;
62927;SDS011;51070;52.236;-0.892;2022-09-28T06:20:35;11.40;;;4.90;;
62927;SDS011;51070;52.236;-0.892;2022-09-28T06:23:05;9.90;;;5.60;;
62927;SDS011;51070;52.236;-0.892;2022-09-28T06:25:32;8.90;;;4.80;;
62927;SDS011;51070;52.236;-0.892;2022-09-28T06:27:58;10.50;;;5.00;;
62927;SDS011;51070;52.236;-0.892;2022-09-28T06:30:26;7.90;;;4.60;;
62927;SDS011;51070;52.236;-0.892;2022-09-28T06:32:54;10.80;;;5.30;;
62927;SDS011;51070;52.236;-0.892;2022-09-28T06:35:21;7.80;;;4.80;;
62927;SDS011;51070;52.236;-0.892;2022-09-28T06:37:48;9.10;;;4.90;;
62927;SDS011;51070;52.236;-0.892;2022-09-28T06:40:13;10.40;;;4.80;;
62927;SDS011;51070;52.236;-0.892;2022-09-28T06:42:39;8.70;;;4.80;;
62927;SDS011;51070;52.236;-0.892;2022-09-28T06:45:05;8.70;;;4.80;;
62927;SDS011;51070;52.236;-0.892;2022-09-28T06:47:32;8.20;;;4.70;;
62927;SDS011;51070;52.236;-0.892;2022-09-28T06:49:58;10.00;;;5.30;;
62927;SDS011;51070;52.236;-0.892;2022-09-28T06:52:24;9.90;;;5.40;;
62927;SDS011;51070;52.236;-0.892;2022-09-28T06:54:50;9.00;;;5.10;;
62927;SDS011;51070;52.236;-0.892;2022-09-28T06:57:16;8.50;;;5.00;;
62927;SDS011;51070;52.236;-0.892;2022-09-28T06:59:42;7.70;;;5.20;;
62927;SDS011;51070;52.236;-0.892;2022-09-28T07:02:11;7.20;;;4.70;;
62927;SDS011;51070;52.236;-0.892;2022-09-28T07:04:40;8.50;;;5.30;;
62927;SDS011;51070;52.236;-0.892;2022-09-28T07:07:09;7.70;;;4.70;;
62927;SDS011;51070;52.236;-0.892;2022-09-28T07:09:35;6.40;;;4.60;;
62927;SDS011;51070;52.236;-0.892;2022-09-28T07:12:01;8.30;;;4.90;;
62927;SDS011;51070;52.236;-0.892;2022-09-28T07:14:29;7.10;;;4.40;;
62927;SDS011;51070;52.236;-0.892;2022-09-28T07:16:57;6.20;;;4.30;;
62927;SDS011;51070;52.236;-0.892;2022-09-28T07:19:22;6.30;;;4.40;;
62927;SDS011;51070;52.236;-0.892;2022-09-28T07:21:50;9.00;;;3.80;;
62927;SDS011;51070;52.236;-0.892;2022-09-28T07:24:16;8.70;;;4.90;;
62927;SDS011;51070;52.236;-0.892;2022-09-28T07:26:41;7.30;;;4.70;;
62927;SDS011;51070;52.236;-0.892;2022-09-28T07:29:09;9.50;;;5.00;;
62927;SDS011;51070;52.236;-0.892;2022-09-28T07:31:36;7.40;;;4.30;;
62927;SDS011;51070;52.236;-0.892;2022-09-28T07:34:02;6.30;;;4.00;;
62927;SDS011;51070;52.236;-0.892;2022-09-28T07:36:28;6.90;;;4.40;;
62927;SDS011;51070;52.236;-0.892;2022-09-28T07:38:54;8.20;;;4.00;;
62927;SDS011;51070;52.236;-0.892;2022-09-28T07:41:20;7.80;;;3.90;;
62927;SDS011;51070;52.236;-0.892;2022-09-28T07:43:58;6.30;;;3.80;;
62927;SDS011;51070;52.236;-0.892;2022-09-28T07:46:33;7.00;;;4.40;;
62927;SDS011;51070;52.236;-0.892;2022-09-28T07:48:59;7.50;;;4.70;;
62927;SDS011;51070;52.236;-0.892;2022-09-28T07:51:24;6.90;;;3.90;;
62927;SDS011;51070;52.236;-0.892;2022-09-28T07:53:50;5.60;;;4.00;;
62927;SDS011;51070;52.236;-0.892;2022-09-28T07:56:18;11.20;;;5.10;;
62927;SDS011;51070;52.236;-0.892;2022-09-28T07:58:45;8.50;;;3.70;;
62927;SDS011;51070;52.236;-0.892;2022-09-28T08:01:11;8.40;;;4.20;;
62927;SDS011;51070;52.236;-0.892;2022-09-28T08:03:41;7.80;;;3.80;;
62927;SDS011;51070;52.236;-0.892;2022-09-28T08:06:12;6.00;;;3.70;;
62927;SDS011;51070;52.236;-0.892;2022-09-28T08:08:39;4.40;;;3.00;;
62927;SDS011;51070;52.236;-0.892;2022-09-28T08:11:12;4.20;;;3.40;;
62927;SDS011;51070;52.236;-0.892;2022-09-28T08:13:40;4.80;;;3.40;;
62927;SDS011;51070;52.236;-0.892;2022-09-28T08:16:08;5.60;;;3.60;;
62927;SDS011;51070;52.236;-0.892;2022-09-28T08:18:34;4.90;;;3.20;;
62927;SDS011;51070;52.236;-0.892;2022-09-28T08:21:00;6.90;;;3.70;;
62927;SDS011;51070;52.236;-0.892;2022-09-28T08:23:46;6.10;;;3.50;;
62927;SDS011;51070;52.236;-0.892;2022-09-28T08:26:12;5.90;;;3.60;;
62927;SDS011;51070;52.236;-0.892;2022-09-28T08:28:37;8.60;;;4.10;;
62927;SDS011;51070;52.236;-0.892;2022-09-28T08:31:03;7.20;;;4.30;;
62927;SDS011;51070;52.236;-0.892;2022-09-28T08:33:31;5.60;;;3.80;;
62927;SDS011;51070;52.236;-0.892;2022-09-28T08:35:58;7.40;;;4.30;;
62927;SDS011;51070;52.236;-0.892;2022-09-28T08:38:25;9.70;;;4.00;;
62927;SDS011;51070;52.236;-0.892;2022-09-28T08:46:40;6.00;;;3.80;;
62927;SDS011;51070;52.236;-0.892;2022-09-28T08:51:59;5.60;;;3.20;;
62927;SDS011;51070;52.236;-0.892;2022-09-28T08:54:31;4.70;;;3.30;;
62927;SDS011;51070;52.236;-0.892;2022-09-28T08:57:11;8.50;;;3.60;;
62927;SDS011;51070;52.236;-0.892;2022-09-28T08:59:49;4.90;;;3.40;;
62927;SDS011;51070;52.236;-0.892;2022-09-28T09:02:36;5.80;;;2.80;;
62927;SDS011;51070;52.236;-0.892;2022-09-28T09:05:05;6.30;;;2.90;;
62927;SDS011;51070;52.236;-0.892;2022-09-28T09:21:10;4.10;;;2.40;;
62927;SDS011;51070;52.236;-0.892;2022-09-28T09:26:33;3.20;;;1.90;;
62927;SDS011;51070;52.236;-0.892;2022-09-28T09:32:26;2.00;;;1.80;;
62927;SDS011;51070;52.236;-0.892;2022-09-28T09:35:38;6.00;;;2.10;;
62927;SDS011;51070;52.236;-0.892;2022-09-28T09:41:16;3.90;;;2.10;;
62927;SDS011;51070;52.236;-0.892;2022-09-28T09:46:33;2.80;;;2.00;;
62927;SDS011;51070;52.236;-0.892;2022-09-28T09:49:09;3.00;;;2.00;;
62927;SDS011;51070;52.236;-0.892;2022-09-28T09:57:04;3.20;;;2.30;;
62927;SDS011;51070;52.236;-0.892;2022-09-28T09:59:38;3.30;;;2.00;;
62927;SDS011;51070;52.236;-0.892;2022-09-28T10:02:22;3.20;;;1.80;;
62927;SDS011;51070;52.236;-0.892;2022-09-28T10:04:51;6.60;;;2.30;;
62927;SDS011;51070;52.236;-0.892;2022-09-28T10:07:25;4.30;;;2.00;;
62927;SDS011;51070;52.236;-0.892;2022-09-28T10:09:58;2.60;;;1.70;;
62927;SDS011;51070;52.236;-0.892;2022-09-28T10:12:27;2.80;;;1.70;;
62927;SDS011;51070;52.236;-0.892;2022-09-28T10:14:53;4.10;;;2.00;;
62927;SDS011;51070;52.236;-0.892;2022-09-28T10:17:20;3.00;;;1.70;;
62927;SDS011;51070;52.236;-0.892;2022-09-28T10:19:51;3.20;;;1.40;;
62927;SDS011;51070;52.236;-0.892;2022-09-28T10:22:19;2.30;;;1.80;;
62927;SDS011;51070;52.236;-0.892;2022-09-28T10:24:51;4.20;;;1.40;;
62927;SDS011;51070;52.236;-0.892;2022-09-28T10:27:22;3.60;;;1.50;;
62927;SDS011;51070;52.236;-0.892;2022-09-28T10:32:25;6.80;;;1.40;;
62927;SDS011;51070;52.236;-0.892;2022-09-28T10:40:25;2.70;;;1.30;;
62927;SDS011;51070;52.236;-0.892;2022-09-28T10:45:47;5.60;;;2.30;;
62927;SDS011;51070;52.236;-0.892;2022-09-28T10:48:23;5.70;;;2.20;;
62927;SDS011;51070;52.236;-0.892;2022-09-28T10:51:24;2.70;;;1.80;;
62927;SDS011;51070;52.236;-0.892;2022-09-28T10:53:56;4.20;;;1.90;;
62927;SDS011;51070;52.236;-0.892;2022-09-28T10:56:26;3.90;;;2.10;;
62927;SDS011;51070;52.236;-0.892;2022-09-28T10:58:54;4.30;;;2.20;;
62927;SDS011;51070;52.236;-0.892;2022-09-28T11:01:24;4.30;;;1.70;;
62927;SDS011;51070;52.236;-0.892;2022-09-28T11:03:59;2.40;;;1.70;;
62927;SDS011;51070;52.236;-0.892;2022-09-28T11:06:47;3.00;;;1.70;;
62927;SDS011;51070;52.236;-0.892;2022-09-28T11:09:31;3.30;;;1.90;;
62927;SDS011;51070;52.236;-0.892;2022-09-28T11:11:59;3.20;;;1.40;;
62927;SDS011;51070;52.236;-0.892;2022-09-28T11:14:36;2.70;;;1.40;;
62927;SDS011;51070;52.236;-0.892;2022-09-28T11:17:14;4.50;;;2.20;;
62927;SDS011;51070;52.236;-0.892;2022-09-28T11:19:49;2.50;;;1.70;;
62927;SDS011;51070;52.236;-0.892;2022-09-28T11:22:20;3.00;;;1.50;;
62927;SDS011;51070;52.236;-0.892;2022-09-28T11:24:48;3.00;;;2.00;;
62927;SDS011;51070;52.236;-0.892;2022-09-28T11:27:18;4.20;;;2.40;;
62927;SDS011;51070;52.236;-0.892;2022-09-28T11:29:51;2.60;;;1.30;;
62927;SDS011;51070;52.236;-0.892;2022-09-28T11:32:27;2.50;;;1.30;;
62927;SDS011;51070;52.236;-0.892;2022-09-28T11:34:56;2.80;;;1.70;;
62927;SDS011;51070;52.236;-0.892;2022-09-28T11:37:34;3.20;;;1.40;;
62927;SDS011;51070;52.236;-0.892;2022-09-28T11:40:33;2.50;;;1.60;;
62927;SDS011;51070;52.236;-0.892;2022-09-28T11:43:13;7.30;;;4.10;;
62927;SDS011;51070;52.236;-0.892;2022-09-28T11:45:57;4.00;;;2.00;;
62927;SDS011;51070;52.236;-0.892;2022-09-28T11:49:06;3.40;;;1.60;;
62927;SDS011;51070;52.236;-0.892;2022-09-28T11:51:39;3.90;;;2.30;;
62927;SDS011;51070;52.236;-0.892;2022-09-28T11:54:13;3.20;;;1.90;;
62927;SDS011;51070;52.236;-0.892;2022-09-28T11:56:42;2.50;;;1.60;;
62927;SDS011;51070;52.236;-0.892;2022-09-28T11:59:11;2.70;;;1.40;;
62927;SDS011;51070;52.236;-0.892;2022-09-28T12:04:32;3.20;;;2.10;;
62927;SDS011;51070;52.236;-0.892;2022-09-28T12:07:20;6.60;;;3.90;;
62927;SDS011;51070;52.236;-0.892;2022-09-28T12:09:57;10.00;;;6.80;;
62927;SDS011;51070;52.236;-0.892;2022-09-28T12:12:36;13.50;;;9.30;;
62927;SDS011;51070;52.236;-0.892;2022-09-28T12:18:14;17.00;;;12.10;;
62927;SDS011;51070;52.236;-0.892;2022-09-28T12:20:50;10.70;;;5.50;;
62927;SDS011;51070;52.236;-0.892;2022-09-28T12:23:24;13.50;;;9.00;;
62927;SDS011;51070;52.236;-0.892;2022-09-28T12:25:58;10.50;;;7.20;;
62927;SDS011;51070;52.236;-0.892;2022-09-28T12:28:32;10.10;;;5.80;;
62927;SDS011;51070;52.236;-0.892;2022-09-28T12:34:01;5.10;;;3.80;;
62927;SDS011;51070;52.236;-0.892;2022-09-28T12:36:30;4.20;;;2.40;;
62927;SDS011;51070;52.236;-0.892;2022-09-28T12:39:16;3.70;;;1.20;;
62927;SDS011;51070;52.236;-0.892;2022-09-28T12:50:28;2.30;;;1.00;;
62927;SDS011;51070;52.236;-0.892;2022-09-28T12:55:59;2.80;;;1.40;;
62927;SDS011;51070;52.236;-0.892;2022-09-28T13:11:52;2.50;;;1.60;;
62927;SDS011;51070;52.236;-0.892;2022-09-28T13:14:50;2.10;;;1.20;;
62927;SDS011;51070;52.236;-0.892;2022-09-28T13:17:33;3.40;;;1.60;;
62927;SDS011;51070;52.236;-0.892;2022-09-28T13:25:32;4.90;;;1.40;;
62927;SDS011;51070;52.236;-0.892;2022-09-28T13:28:01;1.40;;;0.90;;
62927;SDS011;51070;52.236;-0.892;2022-09-28T13:30:29;1.70;;;0.90;;
62927;SDS011;51070;52.236;-0.892;2022-09-28T13:32:58;5.70;;;2.20;;
62927;SDS011;51070;52.236;-0.892;2022-09-28T13:35:26;3.10;;;1.30;;
62927;SDS011;51070;52.236;-0.892;2022-09-28T13:43:56;2.80;;;1.00;;
62927;SDS011;51070;52.236;-0.892;2022-09-28T13:52:03;2.60;;;1.40;;
62927;SDS011;51070;52.236;-0.892;2022-09-28T13:57:47;3.40;;;1.10;;
62927;SDS011;51070;52.236;-0.892;2022-09-28T14:02:45;3.00;;;2.00;;
62927;SDS011;51070;52.236;-0.892;2022-09-28T14:18:50;2.30;;;0.90;;
62927;SDS011;51070;52.236;-0.892;2022-09-28T14:24:18;4.90;;;1.00;;
62927;SDS011;51070;52.236;-0.892;2022-09-28T14:26:52;2.70;;;1.40;;
62927;SDS011;51070;52.236;-0.892;2022-09-28T14:29:28;2.60;;;1.10;;
62927;SDS011;51070;52.236;-0.892;2022-09-28T14:32:44;3.40;;;1.20;;
62927;SDS011;51070;52.236;-0.892;2022-09-28T14:34:44;2.30;;;1.20;;
62927;SDS011;51070;52.236;-0.892;2022-09-28T14:53:51;2.00;;;0.70;;
62927;SDS011;51070;52.236;-0.892;2022-09-28T14:56:17;2.60;;;0.70;;
62927;SDS011;51070;52.236;-0.892;2022-09-28T14:58:43;8.70;;;3.40;;
62927;SDS011;51070;52.236;-0.892;2022-09-28T15:01:13;4.10;;;2.10;;
62927;SDS011;51070;52.236;-0.892;2022-09-28T15:03:45;2.00;;;1.40;;
62927;SDS011;51070;52.236;-0.892;2022-09-28T15:06:15;4.60;;;2.10;;
62927;SDS011;51070;52.236;-0.892;2022-09-28T15:08:41;1.30;;;1.00;;
62927;SDS011;51070;52.236;-0.892;2022-09-28T15:11:25;2.90;;;1.10;;
62927;SDS011;51070;52.236;-0.892;2022-09-28T15:13:51;2.80;;;1.20;;
62927;SDS011;51070;52.236;-0.892;2022-09-28T15:16:30;3.80;;;2.10;;
62927;SDS011;51070;52.236;-0.892;2022-09-28T15:21:42;6.00;;;3.40;;
62927;SDS011;51070;52.236;-0.892;2022-09-28T15:26:57;5.00;;;2.00;;
62927;SDS011;51070;52.236;-0.892;2022-09-28T15:29:24;6.60;;;3.50;;
62927;SDS011;51070;52.236;-0.892;2022-09-28T15:31:55;5.60;;;3.30;;
62927;SDS011;51070;52.236;-0.892;2022-09-28T15:34:27;2.50;;;1.40;;
62927;SDS011;51070;52.236;-0.892;2022-09-28T15:37:13;4.90;;;2.20;;
62927;SDS011;51070;52.236;-0.892;2022-09-28T15:39:48;4.80;;;2.00;;
62927;SDS011;51070;52.236;-0.892;2022-09-28T15:42:18;2.50;;;1.10;;
62927;SDS011;51070;52.236;-0.892;2022-09-28T15:47:25;1.90;;;0.80;;
62927;SDS011;51070;52.236;-0.892;2022-09-28T15:52:53;2.70;;;0.90;;
62927;SDS011;51070;52.236;-0.892;2022-09-28T15:55:24;2.20;;;1.10;;
62927;SDS011;51070;52.236;-0.892;2022-09-28T16:00:36;1.30;;;0.80;;
62927;SDS011;51070;52.236;-0.892;2022-09-28T16:03:11;3.30;;;1.80;;
62927;SDS011;51070;52.236;-0.892;2022-09-28T16:16:47;5.70;;;4.50;;
62927;SDS011;51070;52.236;-0.892;2022-09-28T16:19:21;3.70;;;2.60;;
62927;SDS011;51070;52.236;-0.892;2022-09-28T16:21:50;2.20;;;1.80;;
62927;SDS011;51070;52.236;-0.892;2022-09-28T16:24:18;4.00;;;1.50;;
62927;SDS011;51070;52.236;-0.892;2022-09-28T16:26:46;1.80;;;1.40;;
62927;SDS011;51070;52.236;-0.892;2022-09-28T16:29:26;2.90;;;1.40;;
62927;SDS011;51070;52.236;-0.892;2022-09-28T16:37:35;6.20;;;3.30;;
62927;SDS011;51070;52.236;-0.892;2022-09-28T16:40:01;5.20;;;3.10;;
62927;SDS011;51070;52.236;-0.892;2022-09-28T16:42:27;4.20;;;2.30;;
62927;SDS011;51070;52.236;-0.892;2022-09-28T16:44:52;3.40;;;2.00;;
62927;SDS011;51070;52.236;-0.892;2022-09-28T16:47:20;2.50;;;1.20;;
62927;SDS011;51070;52.236;-0.892;2022-09-28T16:49:47;2.40;;;1.30;;
62927;SDS011;51070;52.236;-0.892;2022-09-28T16:52:13;2.90;;;1.50;;
62927;SDS011;51070;52.236;-0.892;2022-09-28T16:55:02;2.00;;;1.00;;
62927;SDS011;51070;52.236;-0.892;2022-09-28T16:57:43;2.30;;;1.10;;
62927;SDS011;51070;52.236;-0.892;2022-09-28T17:00:13;1.30;;;0.90;;
62927;SDS011;51070;52.236;-0.892;2022-09-28T17:02:48;3.30;;;1.70;;
62927;SDS011;51070;52.236;-0.892;2022-09-28T17:05:15;12.20;;;6.80;;
62927;SDS011;51070;52.236;-0.892;2022-09-28T17:08:00;10.70;;;5.00;;
62927;SDS011;51070;52.236;-0.892;2022-09-28T17:13:08;9.30;;;6.50;;
62927;SDS011;51070;52.236;-0.892;2022-09-28T17:18:03;6.30;;;3.80;;
62927;SDS011;51070;52.236;-0.892;2022-09-28T17:20:30;3.40;;;2.10;;
62927;SDS011;51070;52.236;-0.892;2022-09-28T17:22:57;4.40;;;2.50;;
62927;SDS011;51070;52.236;-0.892;2022-09-28T17:25:23;4.70;;;2.30;;
62927;SDS011;51070;52.236;-0.892;2022-09-28T17:27:50;4.90;;;2.70;;
62927;SDS011;51070;52.236;-0.892;2022-09-28T17:30:20;5.70;;;3.70;;
62927;SDS011;51070;52.236;-0.892;2022-09-28T17:32:46;7.20;;;3.80;;
62927;SDS011;51070;52.236;-0.892;2022-09-28T17:35:16;9.60;;;5.50;;
62927;SDS011;51070;52.236;-0.892;2022-09-28T17:37:43;13.70;;;7.80;;
62927;SDS011;51070;52.236;-0.892;2022-09-28T17:40:25;7.50;;;4.90;;
62927;SDS011;51070;52.236;-0.892;2022-09-28T17:42:53;6.00;;;4.10;;
62927;SDS011;51070;52.236;-0.892;2022-09-28T17:45:20;6.60;;;4.30;;
62927;SDS011;51070;52.236;-0.892;2022-09-28T17:47:51;8.30;;;5.30;;
62927;SDS011;51070;52.236;-0.892;2022-09-28T17:50:17;8.50;;;6.00;;
62927;SDS011;51070;52.236;-0.892;2022-09-28T17:52:46;9.40;;;6.00;;
62927;SDS011;51070;52.236;-0.892;2022-09-28T17:55:16;13.30;;;6.30;;
62927;SDS011;51070;52.236;-0.892;2022-09-28T17:57:53;16.20;;;9.10;;
62927;SDS011;51070;52.236;-0.892;2022-09-28T18:00:20;37.70;;;20.40;;
62927;SDS011;51070;52.236;-0.892;2022-09-28T18:02:47;43.30;;;23.90;;
62927;SDS011;51070;52.236;-0.892;2022-09-28T18:05:14;26.70;;;16.90;;
62927;SDS011;51070;52.236;-0.892;2022-09-28T18:07:40;18.30;;;11.20;;
62927;SDS011;51070;52.236;-0.892;2022-09-28T18:10:09;22.70;;;13.60;;
62927;SDS011;51070;52.236;-0.892;2022-09-28T18:12:45;17.50;;;8.80;;
62927;SDS011;51070;52.236;-0.892;2022-09-28T18:15:15;23.40;;;13.60;;
62927;SDS011;51070;52.236;-0.892;2022-09-28T18:17:43;24.30;;;13.70;;
62927;SDS011;51070;52.236;-0.892;2022-09-28T18:20:09;22.60;;;14.10;;
62927;SDS011;51070;52.236;-0.892;2022-09-28T18:22:36;25.90;;;15.80;;